createdAt,value
2019-05-26T00:00:13.371Z,21.39
2019-05-26T00:01:13.194Z,21.33
2019-05-26T00:02:13.241Z,21.36
2019-05-26T00:03:13.172Z,21.36
2019-05-26T00:04:13.162Z,21.37
2019-05-26T00:05:13.157Z,21.32
2019-05-26T00:06:13.267Z,21.35
2019-05-26T00:07:13.136Z,21.37
2019-05-26T00:08:13.270Z,21.35
2019-05-26T00:09:13.102Z,21.35
2019-05-26T00:10:13.105Z,21.30
2019-05-26T00:11:13.081Z,21.39
2019-05-26T00:12:15.817Z,21.37
2019-05-26T00:13:13.147Z,21.35
2019-05-26T00:14:13.046Z,21.37
2019-05-26T00:15:13.039Z,21.39
2019-05-26T00:16:13.028Z,21.33
2019-05-26T00:17:13.014Z,21.39
2019-05-26T00:18:13.128Z,21.39
2019-05-26T00:19:13.025Z,21.35
2019-05-26T00:20:12.988Z,21.40
2019-05-26T00:21:12.971Z,21.37
2019-05-26T00:22:13.119Z,21.42
2019-05-26T00:23:12.950Z,21.39
2019-05-26T00:24:13.012Z,21.40
2019-05-26T00:25:12.927Z,21.30
2019-05-26T00:26:13.004Z,21.32
2019-05-26T00:27:12.926Z,21.30
2019-05-26T00:28:13.065Z,21.42
2019-05-26T00:29:12.882Z,21.36
2019-05-26T00:30:12.971Z,21.39
2019-05-26T00:31:12.931Z,21.33
2019-05-26T00:32:12.854Z,21.40
2019-05-26T00:33:12.850Z,21.36
2019-05-26T00:34:12.835Z,21.40
2019-05-26T00:35:12.813Z,21.29
2019-05-26T00:36:12.836Z,21.39
2019-05-26T00:37:12.791Z,21.40
2019-05-26T00:38:20.743Z,21.33
2019-05-26T00:39:12.775Z,21.32
2019-05-26T00:40:12.756Z,21.35
2019-05-26T00:41:12.789Z,21.32
2019-05-26T00:42:12.838Z,21.32
2019-05-26T00:43:12.722Z,21.37
2019-05-26T00:44:12.746Z,21.36
2019-05-26T00:45:12.700Z,21.39
2019-05-26T00:46:12.694Z,21.39
2019-05-26T00:47:12.677Z,21.27
2019-05-26T00:48:12.703Z,21.35
2019-05-26T00:49:12.662Z,21.33
2019-05-26T00:50:12.644Z,21.33
2019-05-26T00:51:12.638Z,21.36
2019-05-26T00:52:12.684Z,21.32
2019-05-26T00:53:12.614Z,21.32
2019-05-26T00:54:12.628Z,21.37
2019-05-26T00:55:12.590Z,21.36
2019-05-26T00:56:12.638Z,21.42
2019-05-26T00:57:12.569Z,21.36
2019-05-26T00:58:12.611Z,21.40
2019-05-26T00:59:12.543Z,21.27
2019-05-26T01:00:12.682Z,21.39
2019-05-26T01:01:12.521Z,21.39
2019-05-26T01:02:20.294Z,21.25
2019-05-26T01:03:12.501Z,21.30
2019-05-26T01:04:12.489Z,21.33
2019-05-26T01:05:12.475Z,21.39
2019-05-26T01:06:12.508Z,21.35
2019-05-26T01:07:20.330Z,21.32
2019-05-26T01:08:12.444Z,21.30
2019-05-26T01:09:12.433Z,21.37
2019-05-26T01:10:12.420Z,21.36
2019-05-26T01:11:12.408Z,21.36
2019-05-26T01:12:12.436Z,21.37
2019-05-26T01:13:12.444Z,21.29
2019-05-26T01:14:12.378Z,21.39
2019-05-26T01:15:12.364Z,21.35
2019-05-26T01:16:12.357Z,21.36
2019-05-26T01:17:12.446Z,21.32
2019-05-26T01:18:12.362Z,21.32
2019-05-26T01:19:19.870Z,21.32
2019-05-26T01:20:12.308Z,21.35
2019-05-26T01:21:12.300Z,21.30
2019-05-26T01:22:12.351Z,21.37
2019-05-26T01:23:12.276Z,21.27
2019-05-26T01:24:12.294Z,21.35
2019-05-26T01:25:12.270Z,21.33
2019-05-26T01:26:12.248Z,21.27
2019-05-26T01:27:12.236Z,21.39
2019-05-26T01:28:19.912Z,21.27
2019-05-26T01:29:12.206Z,21.32
2019-05-26T01:30:12.250Z,21.36
2019-05-26T01:31:12.183Z,21.33
2019-05-26T01:32:12.182Z,21.32
2019-05-26T01:33:12.164Z,21.25
2019-05-26T01:34:12.226Z,21.39
2019-05-26T01:35:12.141Z,21.36
2019-05-26T01:36:12.162Z,21.33
2019-05-26T01:37:12.154Z,21.32
2019-05-26T01:38:23.240Z,21.35
2019-05-26T01:40:21.315Z,21.39
2019-05-26T01:41:21.334Z,21.30
2019-05-26T01:42:21.311Z,21.37
2019-05-26T01:43:21.285Z,21.30
2019-05-26T01:44:21.355Z,21.37
2019-05-26T01:45:21.269Z,21.30
2019-05-26T01:46:22.130Z,21.32
2019-05-26T01:47:21.259Z,21.30
2019-05-26T01:48:21.226Z,21.35
2019-05-26T01:49:21.503Z,21.29
2019-05-26T01:50:21.203Z,21.30
2019-05-26T01:51:21.199Z,21.25
2019-05-26T01:52:21.189Z,21.33
2019-05-26T01:53:21.201Z,21.30
2019-05-26T01:54:21.159Z,21.36
2019-05-26T01:55:21.172Z,21.36
2019-05-26T01:56:21.231Z,21.27
2019-05-26T01:57:21.127Z,21.32
2019-05-26T01:58:21.134Z,21.25
2019-05-26T01:59:21.134Z,21.30
2019-05-26T02:00:21.098Z,21.30
2019-05-26T02:01:21.083Z,21.35
2019-05-26T02:02:21.071Z,21.29
2019-05-26T02:03:21.060Z,21.33
2019-05-26T02:04:21.049Z,21.27
2019-05-26T02:05:21.078Z,21.29
2019-05-26T02:06:21.074Z,21.35
2019-05-26T02:07:21.022Z,21.25
2019-05-26T02:08:21.004Z,21.32
2019-05-26T02:09:20.992Z,21.35
2019-05-26T02:10:20.993Z,21.27
2019-05-26T02:11:21.002Z,21.30
2019-05-26T02:12:21.118Z,21.29
2019-05-26T02:13:20.948Z,21.29
2019-05-26T02:14:20.942Z,21.32
2019-05-26T02:15:20.983Z,21.30
2019-05-26T02:16:20.922Z,21.29
2019-05-26T02:17:20.945Z,21.33
2019-05-26T02:18:20.892Z,21.29
2019-05-26T02:19:20.886Z,21.32
2019-05-26T02:20:20.879Z,21.24
2019-05-26T02:21:20.861Z,21.27
2019-05-26T02:22:20.854Z,21.33
2019-05-26T02:23:20.867Z,21.30
2019-05-26T02:24:20.934Z,21.32
2019-05-26T02:25:20.815Z,21.27
2019-05-26T02:26:20.880Z,21.25
2019-05-26T02:27:20.794Z,21.25
2019-05-26T02:28:20.851Z,21.29
2019-05-26T02:29:20.798Z,21.29
2019-05-26T02:30:20.786Z,21.30
2019-05-26T02:31:28.630Z,21.29
2019-05-26T02:32:20.755Z,21.30
2019-05-26T02:33:20.729Z,21.32
2019-05-26T02:34:20.786Z,21.21
2019-05-26T02:35:20.739Z,21.29
2019-05-26T02:36:20.698Z,21.29
2019-05-26T02:37:20.774Z,21.27
2019-05-26T02:38:25.704Z,21.27
2019-05-26T02:39:21.658Z,21.29
2019-05-26T02:40:20.675Z,21.29
2019-05-26T02:41:20.670Z,21.25
2019-05-26T02:42:20.684Z,21.27
2019-05-26T02:43:20.621Z,21.30
2019-05-26T02:44:20.725Z,21.27
2019-05-26T02:45:20.596Z,21.32
2019-05-26T02:46:20.614Z,21.29
2019-05-26T02:47:20.623Z,21.29
2019-05-26T02:48:20.664Z,21.25
2019-05-26T02:49:20.554Z,21.29
2019-05-26T02:50:20.536Z,21.25
2019-05-26T02:51:20.531Z,21.30
2019-05-26T02:52:20.512Z,21.20
2019-05-26T02:53:24.484Z,21.30
2019-05-26T02:54:20.533Z,21.24
2019-05-26T02:55:20.481Z,21.24
2019-05-26T02:56:20.547Z,21.27
2019-05-26T02:57:20.472Z,21.27
2019-05-26T02:58:20.772Z,21.29
2019-05-26T02:59:20.466Z,21.18
2019-05-26T03:00:20.435Z,21.30
2019-05-26T03:01:20.416Z,21.22
2019-05-26T03:02:20.401Z,21.24
2019-05-26T03:03:20.394Z,21.20
2019-05-26T03:04:20.394Z,21.24
2019-05-26T03:05:20.587Z,21.21
2019-05-26T03:06:20.367Z,21.24
2019-05-26T03:07:20.388Z,21.25
2019-05-26T03:08:20.341Z,21.25
2019-05-26T03:09:23.189Z,21.24
2019-05-26T03:10:20.312Z,21.30
2019-05-26T03:11:20.452Z,21.29
2019-05-26T03:12:20.296Z,21.24
2019-05-26T03:13:20.291Z,21.20
2019-05-26T03:14:28.181Z,21.20
2019-05-26T03:15:20.274Z,21.17
2019-05-26T03:16:20.257Z,21.27
2019-05-26T03:17:27.265Z,21.25
2019-05-26T03:18:20.231Z,21.27
2019-05-26T03:19:20.224Z,21.27
2019-05-26T03:20:20.232Z,21.21
2019-05-26T03:21:20.191Z,21.25
2019-05-26T03:22:20.181Z,21.25
2019-05-26T03:23:20.338Z,21.27
2019-05-26T03:24:20.244Z,21.18
2019-05-26T03:25:20.158Z,21.20
2019-05-26T03:26:20.245Z,21.24
2019-05-26T03:27:20.125Z,21.29
2019-05-26T03:28:20.163Z,21.17
2019-05-26T03:29:20.129Z,21.22
2019-05-26T03:30:20.293Z,21.22
2019-05-26T03:31:20.085Z,21.17
2019-05-26T03:32:20.075Z,21.21
2019-05-26T03:33:20.058Z,21.17
2019-05-26T03:34:20.105Z,21.25
2019-05-26T03:35:20.159Z,21.24
2019-05-26T03:36:20.063Z,21.27
2019-05-26T03:37:20.016Z,21.22
2019-05-26T03:38:20.019Z,21.17
2019-05-26T03:39:19.993Z,21.17
2019-05-26T03:40:20.016Z,21.24
2019-05-26T03:41:19.993Z,21.22
2019-05-26T03:42:20.220Z,21.25
2019-05-26T03:43:19.952Z,21.24
2019-05-26T03:44:20.188Z,21.24
2019-05-26T03:45:19.948Z,21.22
2019-05-26T03:46:27.309Z,21.21
2019-05-26T03:47:27.850Z,21.22
2019-05-26T03:48:27.861Z,21.21
2019-05-26T03:49:27.891Z,21.20
2019-05-26T03:50:19.898Z,21.20
2019-05-26T03:51:19.914Z,21.24
2019-05-26T03:52:19.967Z,21.24
2019-05-26T03:53:19.835Z,21.20
2019-05-26T03:54:19.830Z,21.32
2019-05-26T03:55:19.817Z,21.25
2019-05-26T03:56:19.816Z,21.24
2019-05-26T03:57:19.793Z,21.20
2019-05-26T03:58:19.813Z,21.24
2019-05-26T03:59:19.770Z,21.30
2019-05-26T04:00:19.762Z,21.27
2019-05-26T04:01:19.748Z,21.22
2019-05-26T04:02:19.822Z,21.21
2019-05-26T04:03:19.733Z,21.30
2019-05-26T04:04:19.747Z,21.24
2019-05-26T04:05:19.704Z,21.24
2019-05-26T04:06:19.694Z,21.24
2019-05-26T04:07:19.724Z,21.24
2019-05-26T04:08:19.673Z,21.25
2019-05-26T04:09:26.954Z,21.21
2019-05-26T04:10:27.491Z,21.21
2019-05-26T04:11:27.514Z,21.22
2019-05-26T04:12:27.547Z,21.17
2019-05-26T04:13:19.617Z,21.25
2019-05-26T04:14:19.610Z,21.30
2019-05-26T04:15:19.676Z,21.30
2019-05-26T04:16:19.588Z,21.24
2019-05-26T04:17:19.569Z,21.24
2019-05-26T04:18:19.565Z,21.22
2019-05-26T04:19:19.589Z,21.35
2019-05-26T04:20:19.576Z,21.18
2019-05-26T04:21:19.683Z,21.30
2019-05-26T04:22:19.517Z,21.32
2019-05-26T04:23:19.505Z,21.30
2019-05-26T04:24:19.545Z,21.27
2019-05-26T04:25:19.484Z,21.21
2019-05-26T04:26:19.472Z,21.29
2019-05-26T04:27:19.490Z,21.30
2019-05-26T04:28:19.449Z,21.30
2019-05-26T04:29:19.437Z,21.27
2019-05-26T04:30:27.089Z,21.18
2019-05-26T04:31:19.417Z,21.25
2019-05-26T04:32:19.404Z,21.21
2019-05-26T04:33:19.488Z,21.27
2019-05-26T04:34:19.381Z,21.24
2019-05-26T04:35:19.376Z,21.25
2019-05-26T04:36:19.414Z,21.25
2019-05-26T04:37:19.350Z,21.33
2019-05-26T04:38:19.346Z,21.32
2019-05-26T04:39:19.485Z,21.30
2019-05-26T04:40:26.943Z,21.27
2019-05-26T04:41:20.367Z,21.30
2019-05-26T04:42:19.293Z,21.35
2019-05-26T04:43:19.290Z,21.30
2019-05-26T04:44:19.270Z,21.27
2019-05-26T04:45:19.303Z,21.32
2019-05-26T04:46:19.254Z,21.29
2019-05-26T04:47:19.281Z,21.30
2019-05-26T04:48:19.240Z,21.30
2019-05-26T04:49:19.255Z,21.29
2019-05-26T04:50:19.211Z,21.32
2019-05-26T04:51:19.393Z,21.29
2019-05-26T04:52:19.183Z,21.30
2019-05-26T04:53:19.280Z,21.30
2019-05-26T04:54:19.169Z,21.33
2019-05-26T04:55:19.203Z,21.30
2019-05-26T04:56:19.142Z,21.29
2019-05-26T04:57:19.375Z,21.29
2019-05-26T04:58:19.142Z,21.29
2019-05-26T04:59:19.169Z,21.30
2019-05-26T05:00:19.154Z,21.29
2019-05-26T05:01:19.155Z,21.33
2019-05-26T05:02:19.163Z,21.27
2019-05-26T05:03:19.245Z,21.30
2019-05-26T05:04:19.233Z,21.36
2019-05-26T05:05:19.037Z,21.30
2019-05-26T05:06:19.026Z,21.30
2019-05-26T05:07:28.489Z,21.32
2019-05-26T05:08:19.008Z,21.30
2019-05-26T05:09:19.014Z,21.32
2019-05-26T05:10:18.980Z,21.30
2019-05-26T05:11:18.971Z,21.30
2019-05-26T05:12:18.997Z,21.33
2019-05-26T05:13:19.071Z,21.32
2019-05-26T05:14:18.940Z,21.32
2019-05-26T05:15:19.054Z,21.32
2019-05-26T05:16:18.919Z,21.36
2019-05-26T05:17:18.949Z,21.33
2019-05-26T05:18:18.915Z,21.32
2019-05-26T05:19:18.892Z,21.32
2019-05-26T05:20:18.873Z,21.36
2019-05-26T05:21:18.876Z,21.30
2019-05-26T05:22:18.851Z,21.36
2019-05-26T05:23:18.840Z,21.39
2019-05-26T05:24:18.829Z,21.36
2019-05-26T05:25:18.815Z,21.30
2019-05-26T05:26:18.812Z,21.32
2019-05-26T05:27:18.907Z,21.39
2019-05-26T05:28:18.781Z,21.37
2019-05-26T05:29:18.785Z,21.36
2019-05-26T05:30:18.761Z,21.29
2019-05-26T05:31:18.751Z,21.36
2019-05-26T05:32:18.800Z,21.36
2019-05-26T05:33:18.755Z,21.33
2019-05-26T05:34:18.717Z,21.39
2019-05-26T05:35:18.705Z,21.35
2019-05-26T05:36:18.708Z,21.29
2019-05-26T05:37:18.685Z,21.32
2019-05-26T05:38:18.678Z,21.36
2019-05-26T05:39:18.966Z,21.33
2019-05-26T05:40:18.651Z,21.39
2019-05-26T05:41:18.680Z,21.32
2019-05-26T05:42:18.671Z,21.33
2019-05-26T05:43:18.619Z,21.37
2019-05-26T05:44:18.608Z,21.42
2019-05-26T05:45:18.664Z,21.37
2019-05-26T05:46:18.584Z,21.37
2019-05-26T05:47:18.580Z,21.42
2019-05-26T05:48:18.561Z,21.39
2019-05-26T05:49:18.605Z,21.32
2019-05-26T05:50:18.555Z,21.40
2019-05-26T05:51:18.824Z,21.39
2019-05-26T05:52:18.517Z,21.33
2019-05-26T05:53:18.706Z,21.35
2019-05-26T05:54:18.493Z,21.36
2019-05-26T05:55:18.513Z,21.30
2019-05-26T05:56:18.473Z,21.39
2019-05-26T05:57:18.739Z,21.33
2019-05-26T05:58:18.473Z,21.39
2019-05-26T05:59:18.586Z,21.35
2019-05-26T06:00:18.428Z,21.32
2019-05-26T06:01:18.428Z,21.35
2019-05-26T06:02:18.405Z,21.35
2019-05-26T06:03:18.965Z,21.35
2019-05-26T06:04:18.395Z,21.35
2019-05-26T06:05:18.552Z,21.35
2019-05-26T06:06:18.469Z,21.35
2019-05-26T06:07:18.369Z,21.35
2019-05-26T06:08:18.408Z,21.37
2019-05-26T06:09:18.367Z,21.35
2019-05-26T06:10:18.343Z,21.37
2019-05-26T06:11:18.304Z,21.39
2019-05-26T06:12:18.366Z,21.35
2019-05-26T06:13:18.292Z,21.32
2019-05-26T06:14:18.272Z,21.36
2019-05-26T06:15:18.435Z,21.36
2019-05-26T06:16:18.251Z,21.35
2019-05-26T06:17:18.313Z,21.35
2019-05-26T06:18:18.287Z,21.35
2019-05-26T06:19:18.481Z,21.35
2019-05-26T06:20:18.208Z,21.37
2019-05-26T06:21:18.221Z,21.35
2019-05-26T06:22:18.186Z,21.35
2019-05-26T06:23:18.180Z,21.35
2019-05-26T06:24:18.379Z,21.40
2019-05-26T06:25:18.153Z,21.39
2019-05-26T06:26:18.207Z,21.36
2019-05-26T06:27:18.158Z,21.37
2019-05-26T06:28:18.131Z,21.36
2019-05-26T06:29:18.127Z,21.39
2019-05-26T06:30:18.251Z,21.33
2019-05-26T06:31:18.083Z,21.40
2019-05-26T06:32:18.086Z,21.33
2019-05-26T06:33:18.155Z,21.40
2019-05-26T06:34:18.056Z,21.37
2019-05-26T06:35:18.044Z,21.35
2019-05-26T06:36:18.040Z,21.35
2019-05-26T06:37:18.208Z,21.35
2019-05-26T06:38:18.006Z,21.40
2019-05-26T06:39:18.158Z,21.39
2019-05-26T06:40:17.984Z,21.37
2019-05-26T06:41:32.368Z,21.43
2019-05-26T06:42:18.966Z,21.37
2019-05-26T06:43:25.704Z,21.37
2019-05-26T06:44:17.969Z,21.40
2019-05-26T06:45:17.961Z,21.37
2019-05-26T06:46:17.920Z,21.37
2019-05-26T06:47:17.906Z,21.43
2019-05-26T06:48:17.900Z,21.45
2019-05-26T06:49:17.888Z,21.40
2019-05-26T06:50:17.888Z,21.40
2019-05-26T06:51:17.987Z,21.37
2019-05-26T06:52:17.858Z,21.40
2019-05-26T06:53:17.840Z,21.42
2019-05-26T06:54:17.889Z,21.36
2019-05-26T06:55:17.879Z,21.40
2019-05-26T06:56:17.809Z,21.35
2019-05-26T06:57:17.911Z,21.42
2019-05-26T06:58:17.838Z,21.45
2019-05-26T06:59:17.774Z,21.40
2019-05-26T07:00:17.768Z,21.42
2019-05-26T07:01:17.758Z,21.42
2019-05-26T07:02:17.793Z,21.39
2019-05-26T07:03:17.762Z,21.43
2019-05-26T07:04:17.765Z,21.45
2019-05-26T07:05:25.254Z,21.42
2019-05-26T07:06:25.288Z,21.39
2019-05-26T07:07:17.683Z,21.43
2019-05-26T07:08:24.872Z,21.36
2019-05-26T07:09:17.666Z,21.42
2019-05-26T07:10:17.658Z,21.35
2019-05-26T07:11:17.641Z,21.42
2019-05-26T07:12:25.362Z,21.40
2019-05-26T07:13:17.620Z,21.33
2019-05-26T07:14:17.647Z,21.39
2019-05-26T07:15:17.628Z,21.48
2019-05-26T07:16:37.671Z,21.46
2019-05-26T07:17:20.622Z,21.37
2019-05-26T07:18:17.570Z,21.36
2019-05-26T07:19:17.591Z,21.42
2019-05-26T07:20:17.681Z,21.43
2019-05-26T07:21:17.575Z,21.45
2019-05-26T07:22:17.531Z,21.36
2019-05-26T07:23:17.536Z,21.39
2019-05-26T07:24:17.512Z,21.42
2019-05-26T07:25:17.629Z,21.37
2019-05-26T07:26:17.490Z,21.46
2019-05-26T07:27:17.546Z,21.35
2019-05-26T07:28:17.453Z,21.42
2019-05-26T07:29:17.474Z,21.42
2019-05-26T07:30:17.487Z,21.48
2019-05-26T07:31:17.533Z,21.40
2019-05-26T07:32:17.464Z,21.39
2019-05-26T07:33:17.402Z,21.45
2019-05-26T07:34:17.419Z,21.36
2019-05-26T07:35:17.374Z,21.45
2019-05-26T07:36:17.511Z,21.43
2019-05-26T07:37:17.355Z,21.46
2019-05-26T07:38:17.455Z,21.45
2019-05-26T07:39:17.343Z,21.45
2019-05-26T07:40:17.400Z,21.48
2019-05-26T07:41:17.308Z,21.43
2019-05-26T07:42:17.304Z,21.45
2019-05-26T07:43:17.341Z,21.45
2019-05-26T07:44:17.290Z,21.42
2019-05-26T07:45:17.412Z,21.35
2019-05-26T07:46:17.273Z,21.42
2019-05-26T07:47:17.316Z,21.40
2019-05-26T07:48:17.231Z,21.35
2019-05-26T07:49:17.223Z,21.42
2019-05-26T07:50:17.393Z,21.42
2019-05-26T07:51:17.321Z,21.42
2019-05-26T07:52:17.191Z,21.50
2019-05-26T07:53:17.179Z,21.43
2019-05-26T07:54:25.612Z,21.46
2019-05-26T07:55:18.182Z,21.37
2019-05-26T07:56:17.142Z,21.37
2019-05-26T07:57:17.140Z,21.37
2019-05-26T07:58:17.129Z,21.42
2019-05-26T07:59:17.115Z,21.42
2019-05-26T08:00:17.195Z,21.36
2019-05-26T08:01:17.131Z,21.42
2019-05-26T08:02:17.081Z,21.45
2019-05-26T08:03:17.071Z,21.40
2019-05-26T08:04:17.053Z,21.35
2019-05-26T08:05:17.040Z,21.45
2019-05-26T08:06:17.106Z,21.46
2019-05-26T08:07:17.084Z,21.50
2019-05-26T08:08:17.021Z,21.42
2019-05-26T08:09:16.996Z,21.42
2019-05-26T08:10:16.985Z,21.43
2019-05-26T08:11:16.975Z,21.48
2019-05-26T08:12:25.875Z,21.37
2019-05-26T08:13:17.991Z,21.48
2019-05-26T08:14:16.946Z,21.42
2019-05-26T08:15:16.946Z,21.40
2019-05-26T08:16:16.921Z,21.42
2019-05-26T08:17:16.928Z,21.46
2019-05-26T08:18:16.995Z,21.43
2019-05-26T08:19:16.907Z,21.42
2019-05-26T08:20:17.117Z,21.42
2019-05-26T08:21:16.865Z,21.40
2019-05-26T08:22:16.853Z,21.37
2019-05-26T08:23:16.841Z,21.43
2019-05-26T08:24:16.851Z,21.43
2019-05-26T08:25:16.850Z,21.42
2019-05-26T08:26:16.814Z,21.46
2019-05-26T08:27:16.796Z,21.43
2019-05-26T08:28:16.967Z,21.45
2019-05-26T08:29:16.776Z,21.40
2019-05-26T08:30:16.823Z,21.36
2019-05-26T08:31:16.770Z,21.42
2019-05-26T08:32:16.748Z,21.40
2019-05-26T08:33:16.733Z,21.43
2019-05-26T08:34:16.719Z,21.43
2019-05-26T08:35:16.887Z,21.45
2019-05-26T08:36:16.702Z,21.43
2019-05-26T08:37:16.733Z,21.45
2019-05-26T08:38:16.735Z,21.45
2019-05-26T08:39:16.666Z,21.37
2019-05-26T08:40:16.679Z,21.43
2019-05-26T08:41:16.655Z,21.42
2019-05-26T08:42:26.958Z,21.42
2019-05-26T08:43:17.688Z,21.45
2019-05-26T08:44:16.610Z,21.36
2019-05-26T08:45:16.736Z,21.46
2019-05-26T08:46:24.516Z,21.45
2019-05-26T08:47:16.579Z,21.48
2019-05-26T08:48:16.564Z,21.46
2019-05-26T08:49:16.611Z,21.42
2019-05-26T08:50:16.544Z,21.42
2019-05-26T08:51:16.554Z,21.33
2019-05-26T08:52:16.553Z,21.43
2019-05-26T08:53:16.573Z,21.45
2019-05-26T08:54:16.537Z,21.45
2019-05-26T08:55:16.528Z,21.48
2019-05-26T08:56:16.505Z,21.46
2019-05-26T08:57:16.464Z,21.46
2019-05-26T08:58:16.455Z,21.45
2019-05-26T08:59:16.463Z,21.45
2019-05-26T09:00:16.473Z,21.45
2019-05-26T09:01:16.458Z,21.48
2019-05-26T09:02:16.409Z,21.50
2019-05-26T09:03:16.469Z,21.45
2019-05-26T09:04:16.390Z,21.46
2019-05-26T09:05:16.648Z,21.46
2019-05-26T09:06:16.427Z,21.42
2019-05-26T09:07:16.476Z,21.50
2019-05-26T09:08:16.344Z,21.45
2019-05-26T09:09:16.330Z,21.42
2019-05-26T09:10:16.350Z,21.45
2019-05-26T09:11:16.307Z,21.48
2019-05-26T09:12:16.308Z,21.46
2019-05-26T09:13:16.362Z,21.46
2019-05-26T09:14:16.279Z,21.50
2019-05-26T09:15:16.265Z,21.46
2019-05-26T09:16:16.371Z,21.45
2019-05-26T09:17:16.242Z,21.42
2019-05-26T09:18:16.629Z,21.43
2019-05-26T09:19:16.261Z,21.42
2019-05-26T09:20:16.438Z,21.42
2019-05-26T09:21:16.232Z,21.45
2019-05-26T09:22:16.273Z,21.45
2019-05-26T09:23:16.179Z,21.39
2019-05-26T09:24:16.186Z,21.45
2019-05-26T09:25:16.397Z,21.45
2019-05-26T09:26:16.146Z,21.48
2019-05-26T09:27:16.782Z,21.43
2019-05-26T09:28:16.124Z,21.39
2019-05-26T09:29:16.127Z,21.45
2019-05-26T09:30:16.101Z,21.50
2019-05-26T09:31:16.166Z,21.48
2019-05-26T09:32:16.188Z,21.48
2019-05-26T09:33:16.106Z,21.42
2019-05-26T09:34:16.064Z,21.42
2019-05-26T09:35:16.042Z,21.46
2019-05-26T09:36:16.053Z,21.48
2019-05-26T09:37:16.207Z,21.52
2019-05-26T09:38:16.009Z,21.51
2019-05-26T09:39:15.999Z,21.46
2019-05-26T09:40:15.998Z,21.51
2019-05-26T09:41:16.005Z,21.46
2019-05-26T09:42:16.109Z,21.46
2019-05-26T09:43:16.836Z,21.46
2019-05-26T09:44:15.958Z,21.51
2019-05-26T09:45:15.948Z,21.51
2019-05-26T09:46:15.927Z,21.46
2019-05-26T09:47:15.914Z,21.42
2019-05-26T09:48:23.054Z,21.52
2019-05-26T09:49:23.571Z,21.50
2019-05-26T09:50:23.608Z,21.50
2019-05-26T09:51:23.651Z,21.46
2019-05-26T09:52:24.186Z,21.51
2019-05-26T09:53:23.724Z,21.48
2019-05-26T09:54:15.850Z,21.51
2019-05-26T09:55:15.824Z,21.50
2019-05-26T09:56:15.810Z,21.45
2019-05-26T09:57:15.807Z,21.50
2019-05-26T09:58:15.786Z,21.48
2019-05-26T09:59:15.835Z,21.52
2019-05-26T10:00:16.312Z,21.54
2019-05-26T10:01:15.878Z,21.43
2019-05-26T10:02:15.745Z,21.46
2019-05-26T10:03:15.731Z,21.46
2019-05-26T10:04:23.262Z,21.45
2019-05-26T10:05:22.840Z,21.51
2019-05-26T10:06:15.729Z,21.46
2019-05-26T10:07:16.131Z,21.51
2019-05-26T10:08:15.708Z,21.45
2019-05-26T10:09:15.666Z,21.48
2019-05-26T10:10:15.657Z,21.48
2019-05-26T10:11:15.727Z,21.57
2019-05-26T10:12:15.632Z,21.54
2019-05-26T10:13:30.587Z,21.43
2019-05-26T10:14:16.652Z,21.52
2019-05-26T10:15:15.687Z,21.45
2019-05-26T10:16:15.686Z,21.52
2019-05-26T10:17:15.687Z,21.50
2019-05-26T10:18:15.694Z,21.46
2019-05-26T10:19:15.561Z,21.48
2019-05-26T10:20:15.584Z,21.54
2019-05-26T10:21:15.530Z,21.58
2019-05-26T10:22:15.529Z,21.46
2019-05-26T10:23:15.642Z,21.48
2019-05-26T10:24:15.515Z,21.43
2019-05-26T10:25:15.486Z,21.51
2019-05-26T10:26:15.483Z,21.50
2019-05-26T10:27:15.468Z,21.50
2019-05-26T10:28:15.501Z,21.50
2019-05-26T10:29:15.461Z,21.50
2019-05-26T10:30:15.433Z,21.50
2019-05-26T10:31:15.767Z,21.50
2019-05-26T10:32:15.409Z,21.48
2019-05-26T10:33:15.403Z,21.52
2019-05-26T10:34:15.388Z,21.60
2019-05-26T10:35:15.626Z,21.57
2019-05-26T10:36:15.371Z,21.52
2019-05-26T10:37:15.435Z,21.46
2019-05-26T10:38:15.383Z,21.54
2019-05-26T10:39:15.342Z,21.48
2019-05-26T10:40:15.323Z,21.58
2019-05-26T10:41:15.338Z,21.58
2019-05-26T10:42:15.300Z,21.54
2019-05-26T10:43:15.329Z,21.51
2019-05-26T10:44:15.280Z,21.46
2019-05-26T10:45:15.264Z,21.51
2019-05-26T10:46:15.255Z,21.55
2019-05-26T10:47:15.325Z,21.50
2019-05-26T10:48:15.235Z,21.52
2019-05-26T10:49:15.221Z,21.48
2019-05-26T10:50:15.224Z,21.58
2019-05-26T10:51:15.255Z,21.51
2019-05-26T10:52:15.187Z,21.52
2019-05-26T10:53:15.405Z,21.55
2019-05-26T10:54:15.171Z,21.58
2019-05-26T10:55:15.162Z,21.46
2019-05-26T10:56:15.145Z,21.52
2019-05-26T10:57:15.219Z,21.43
2019-05-26T10:58:15.177Z,21.48
2019-05-26T10:59:15.132Z,21.50
2019-05-26T11:00:15.138Z,21.48
2019-05-26T11:01:15.089Z,21.58
2019-05-26T11:02:15.429Z,21.48
2019-05-26T11:03:15.210Z,21.48
2019-05-26T11:04:15.082Z,21.50
2019-05-26T11:05:22.425Z,21.46
2019-05-26T11:06:15.035Z,21.52
2019-05-26T11:07:15.032Z,21.58
2019-05-26T11:08:15.027Z,21.55
2019-05-26T11:09:15.007Z,21.52
2019-05-26T11:10:14.992Z,21.55
2019-05-26T11:11:15.026Z,21.58
2019-05-26T11:12:14.968Z,21.55
2019-05-26T11:13:14.956Z,21.50
2019-05-26T11:14:22.916Z,21.55
2019-05-26T11:15:14.933Z,21.54
2019-05-26T11:16:14.923Z,21.62
2019-05-26T11:17:14.997Z,21.54
2019-05-26T11:18:14.902Z,21.51
2019-05-26T11:19:14.890Z,21.51
2019-05-26T11:20:14.878Z,21.58
2019-05-26T11:21:14.866Z,21.58
2019-05-26T11:22:14.990Z,21.50
2019-05-26T11:23:14.865Z,21.58
2019-05-26T11:24:14.842Z,21.51
2019-05-26T11:25:14.859Z,21.55
2019-05-26T11:26:14.974Z,21.51
2019-05-26T11:27:15.167Z,21.54
2019-05-26T11:28:14.900Z,21.50
2019-05-26T11:29:14.820Z,21.55
2019-05-26T11:30:14.782Z,21.51
2019-05-26T11:31:14.933Z,21.55
2019-05-26T11:32:14.776Z,21.55
2019-05-26T11:33:14.741Z,21.52
2019-05-26T11:34:14.803Z,21.48
2019-05-26T11:35:14.814Z,21.58
2019-05-26T11:36:14.714Z,21.54
2019-05-26T11:37:14.707Z,21.48
2019-05-26T11:38:14.682Z,21.50
2019-05-26T11:39:14.669Z,21.45
2019-05-26T11:40:14.674Z,21.51
2019-05-26T11:41:15.038Z,21.50
2019-05-26T11:42:14.830Z,21.54
2019-05-26T11:43:17.160Z,21.57
2019-05-26T11:44:18.046Z,21.58
2019-05-26T11:45:14.632Z,21.55
2019-05-26T11:46:16.728Z,21.51
2019-05-26T11:47:14.710Z,21.43
2019-05-26T11:48:14.568Z,21.51
2019-05-26T11:49:14.566Z,21.60
2019-05-26T11:50:14.549Z,21.52
2019-05-26T11:51:14.537Z,21.48
2019-05-26T11:52:14.556Z,21.51
2019-05-26T11:53:14.584Z,21.50
2019-05-26T11:54:22.527Z,21.57
2019-05-26T11:55:14.490Z,21.54
2019-05-26T11:56:14.479Z,21.51
2019-05-26T11:57:14.471Z,21.52
2019-05-26T11:58:14.466Z,21.50
2019-05-26T11:59:21.550Z,21.54
2019-05-26T12:00:14.493Z,21.48
2019-05-26T12:01:14.426Z,21.61
2019-05-26T12:02:14.414Z,21.54
2019-05-26T12:03:14.423Z,21.50
2019-05-26T12:04:14.400Z,21.51
2019-05-26T12:05:17.502Z,21.51
2019-05-26T12:06:14.368Z,21.52
2019-05-26T12:07:14.359Z,21.43
2019-05-26T12:08:14.478Z,21.48
2019-05-26T12:09:14.338Z,21.46
2019-05-26T12:10:14.655Z,21.58
2019-05-26T12:11:14.457Z,21.48
2019-05-26T12:12:14.303Z,21.50
2019-05-26T12:13:14.294Z,21.50
2019-05-26T12:14:14.292Z,21.46
2019-05-26T12:15:14.280Z,21.48
2019-05-26T12:16:14.259Z,21.48
2019-05-26T12:17:14.270Z,21.54
2019-05-26T12:18:14.256Z,21.52
2019-05-26T12:19:14.225Z,21.57
2019-05-26T12:20:14.257Z,21.52
2019-05-26T12:21:14.218Z,21.48
2019-05-26T12:22:14.245Z,21.48
2019-05-26T12:23:14.362Z,21.54
2019-05-26T12:24:14.167Z,21.43
2019-05-26T12:25:14.244Z,21.51
2019-05-26T12:26:14.150Z,21.57
2019-05-26T12:27:14.136Z,21.57
2019-05-26T12:28:14.124Z,21.54
2019-05-26T12:29:14.187Z,21.57
2019-05-26T12:30:14.385Z,21.60
2019-05-26T12:31:14.098Z,21.57
2019-05-26T12:32:14.087Z,21.50
2019-05-26T12:33:14.200Z,21.54
2019-05-26T12:34:14.064Z,21.57
2019-05-26T12:35:14.165Z,21.54
2019-05-26T12:36:14.104Z,21.55
2019-05-26T12:37:14.024Z,21.58
2019-05-26T12:38:14.016Z,21.50
2019-05-26T12:39:14.016Z,21.52
2019-05-26T12:40:14.028Z,21.62
2019-05-26T12:41:14.131Z,21.48
2019-05-26T12:42:16.890Z,21.52
2019-05-26T12:43:14.176Z,21.57
2019-05-26T12:44:14.027Z,21.62
2019-05-26T12:45:13.978Z,21.57
2019-05-26T12:46:13.925Z,21.58
2019-05-26T12:47:13.942Z,21.55
2019-05-26T12:48:13.905Z,21.58
2019-05-26T12:49:13.891Z,21.48
2019-05-26T12:50:13.878Z,21.52
2019-05-26T12:51:13.876Z,21.58
2019-05-26T12:52:13.857Z,21.50
2019-05-26T12:53:14.000Z,21.48